Time;durP1;ratioP1;P1;durP2;ratioP2;P2;SDS_P1;SDS_P2;PMS_P1;PMS_P2;Temp;Humidity;BMP_temperature;BMP_pressure;BME280_temperature;BME280_humidity;BME280_pressure;Samples;Min_cycle;Max_cycle;Signal;HPM_P1;HPM_P2
2023/07/28 00:00:22;;;;;;;;;0.00;0.00;;;;;23.77;53.52;100374.72;4977335;28;52241;-41
2023/07/28 00:02:47;;;;;;;;;2.75;2.25;;;;;23.81;53.08;100371.84;4977621;28;46656;-43
2023/07/28 00:05:13;;;;;;;;;1.00;1.00;;;;;23.80;53.06;100375.47;4977472;28;45437;-40
2023/07/28 00:07:38;;;;;;;;;1.75;1.75;;;;;23.81;53.06;100387.72;4977581;28;45351;-39
2023/07/28 00:10:04;;;;;;;;;1.75;1.00;;;;;23.81;52.95;100390.38;4960210;28;45354;-41
2023/07/28 00:12:29;;;;;;;;;1.00;1.00;;;;;23.81;53.07;100387.72;4977169;28;45625;-42
2023/07/28 00:14:54;;;;;;;;;1.75;1.75;;;;;23.81;53.14;100379.78;4977311;28;45373;-40
2023/07/28 00:17:20;;;;;;;;;1.00;1.00;;;;;23.80;53.00;100378.09;4977429;28;45542;-40
2023/07/28 00:19:45;;;;;;;;;2.00;2.00;;;;;23.80;52.98;100378.09;4976969;28;48395;-43
2023/07/28 00:22:10;;;;;;;;;1.00;1.00;;;;;23.80;52.92;100376.31;4976758;28;56165;-40
2023/07/28 00:24:35;;;;;;;;;3.25;2.50;;;;;23.78;53.51;100370.28;4977120;28;45401;-42
2023/07/28 00:27:01;;;;;;;;;1.00;1.00;;;;;23.79;53.08;100374.63;4977240;28;45435;-41
2023/07/28 00:29:26;;;;;;;;;1.75;1.00;;;;;23.81;53.32;100379.78;4977127;28;45328;-44
2023/07/28 00:31:52;;;;;;;;;1.00;1.00;;;;;23.80;53.00;100367.53;4976317;28;63180;-40
2023/07/28 00:34:18;;;;;;;;;1.00;1.00;;;;;23.82;53.44;100376.19;4977007;28;45650;-39
2023/07/28 00:36:43;;;;;;;;;0.75;0.50;;;;;23.79;53.29;100371.97;4977410;28;45324;-42
2023/07/28 00:39:08;;;;;;;;;1.00;1.00;;;;;23.81;53.50;100374.50;4959731;28;45586;-40
2023/07/28 00:41:34;;;;;;;;;1.00;1.00;;;;;23.81;52.94;100379.78;4976819;28;46038;-43
2023/07/28 00:43:59;;;;;;;;;1.00;1.00;;;;;23.78;52.93;100379.06;4976814;28;45317;-41
2023/07/28 00:46:24;;;;;;;;;2.75;1.00;;;;;23.80;52.99;100378.97;4976566;28;53254;-39
2023/07/28 00:48:50;;;;;;;;;1.00;1.00;;;;;23.80;52.81;100375.47;4977450;28;45397;-40
2023/07/28 00:51:15;;;;;;;;;1.50;0.75;;;;;23.81;53.26;100374.50;4976718;28;45544;-40
2023/07/28 00:53:41;;;;;;;;;1.25;1.25;;;;;23.80;53.21;100381.63;4976860;28;45180;-41
2023/07/28 00:56:07;;;;;;;;;2.50;1.00;;;;;23.81;53.49;100378.00;4976883;28;45688;-40
2023/07/28 00:58:32;;;;;;;;;1.00;1.00;;;;;23.79;52.96;100371.97;4977266;28;45590;-40
2023/07/28 01:00:58;;;;;;;;;2.00;1.00;;;;;23.79;53.52;100374.63;4976077;28;62544;-41
2023/07/28 01:03:24;;;;;;;;;1.00;1.00;;;;;23.77;52.90;100369.44;4977081;28;45336;-42
2023/07/28 01:06:10;;;;;;;;;2.00;1.00;;;;;23.77;53.43;100374.72;4975829;28;45350;-43
2023/07/28 01:08:57;;;;;;;;;1.00;1.00;;;;;23.78;53.35;100379.06;4960433;28;45472;-43
2023/07/28 01:11:22;;;;;;;;;2.00;1.00;;;;;23.79;53.02;100371.97;4976852;28;46098;-43
2023/07/28 01:13:47;;;;;;;;;0.00;0.00;;;;;23.77;53.32;100364.16;4976639;28;45418;-40
2023/07/28 01:16:13;;;;;;;;;2.00;2.00;;;;;23.78;52.97;100368.47;4976667;28;45246;-42
2023/07/28 01:18:38;;;;;;;;;2.00;1.00;;;;;23.80;52.89;100372.81;4976566;28;45231;-44
2023/07/28 01:21:08;;;;;;;;;1.75;1.00;;;;;23.80;53.37;100370.16;4976300;28;46485;-42
2023/07/28 01:23:58;;;;;;;;;1.50;1.00;;;;;23.80;53.01;100372.81;4976448;28;45911;-43
2023/07/28 01:26:42;;;;;;;;;1.00;1.00;;;;;23.81;53.44;100382.44;4976941;28;45215;-42
2023/07/28 01:29:09;;;;;;;;;1.00;1.00;;;;;23.80;53.02;100378.09;4976826;28;45394;-39
2023/07/28 01:31:34;;;;;;;;;1.00;1.00;;;;;23.80;53.19;100378.09;4976142;28;46947;-40
2023/07/28 01:33:59;;;;;;;;;0.75;0.75;;;;;23.77;53.47;100373.91;4976395;28;45225;-40
2023/07/28 01:36:25;;;;;;;;;1.75;1.00;;;;;23.80;52.99;100373.69;4976418;28;48832;-40
2023/07/28 01:38:50;;;;;;;;;1.00;1.00;;;;;23.78;53.28;100371.13;4976633;28;45295;-41
2023/07/28 01:41:15;;;;;;;;;0.00;0.00;;;;;23.81;53.47;100369.22;4976118;28;46094;-40
2023/07/28 01:43:43;;;;;;;;;1.00;1.00;;;;;23.78;53.53;100365.84;4976951;28;45542;-45
2023/07/28 01:46:08;;;;;;;;;1.00;1.00;;;;;23.79;53.52;100364.03;4979610;28;45339;-41
2023/07/28 01:48:33;;;;;;;;;1.00;0.75;;;;;23.80;53.41;100373.69;4979822;28;45523;-42
2023/07/28 01:50:59;;;;;;;;;1.25;1.00;;;;;23.78;53.35;100357.91;4961834;28;45935;-40
2023/07/28 01:53:24;;;;;;;;;2.00;2.00;;;;;23.80;53.47;100356.94;4979795;28;45400;-43
2023/07/28 01:55:49;;;;;;;;;1.00;1.00;;;;;23.78;53.04;100352.59;4979512;28;45443;-40
2023/07/28 01:58:15;;;;;;;;;1.00;1.00;;;;;23.80;53.90;100354.28;4979451;28;45464;-42
2023/07/28 02:00:40;;;;;;;;;1.00;1.00;;;;;23.80;53.63;100356.94;4978864;28;59334;-44
2023/07/28 02:03:06;;;;;;;;;1.25;1.25;;;;;23.80;53.60;100354.28;4979252;28;45314;-44
2023/07/28 02:05:32;;;;;;;;;0.00;0.00;;;;;23.81;53.11;100361.28;4979470;28;45307;-41
2023/07/28 02:07:58;;;;;;;;;1.00;1.00;;;;;23.80;53.01;100351.66;4962310;28;45373;-41
2023/07/28 02:10:23;;;;;;;;;0.25;0.25;;;;;23.79;53.12;100361.41;4979117;28;46444;-44
2023/07/28 02:12:49;;;;;;;;;1.00;1.00;;;;;23.80;52.85;100365.75;4979300;28;45763;-40
2023/07/28 02:15:15;;;;;;;;;1.00;1.00;;;;;23.78;53.15;100352.59;4979233;28;45431;-40
2023/07/28 02:17:40;;;;;;;;;2.00;0.50;;;;;23.80;53.41;100356.94;4958486;28;45337;-41
2023/07/28 02:20:06;;;;;;;;;0.00;0.00;;;;;23.79;53.64;100356.09;4959379;28;45824;-40
2023/07/28 02:22:32;;;;;;;;;0.25;0.25;;;;;23.81;53.24;100355.97;4958181;28;45359;-41
2023/07/28 02:25:01;;;;;;;;;1.00;1.00;;;;;23.80;53.41;100349.00;4959890;28;45354;-41
2023/07/28 02:27:27;;;;;;;;;1.00;1.00;;;;;23.80;53.60;100351.66;4960013;28;45479;-43
2023/07/28 02:29:52;;;;;;;;;1.00;1.00;;;;;23.78;53.04;100355.25;4959200;28;45476;-39
2023/07/28 02:32:17;;;;;;;;;1.00;1.00;;;;;23.78;53.45;100349.97;4959359;28;45340;-42
2023/07/28 02:34:43;;;;;;;;;2.00;1.00;;;;;23.73;53.19;100352.13;4957607;28;54748;-39
2023/07/28 02:37:08;;;;;;;;;2.00;1.00;;;;;23.76;52.94;100359.81;4959227;28;47818;-43
2023/07/28 02:39:33;;;;;;;;;1.00;1.00;;;;;23.77;52.99;100353.56;4957434;28;62861;-41
2023/07/28 02:41:59;;;;;;;;;0.00;0.00;;;;;23.77;53.42;100356.22;4959535;28;45230;-40
2023/07/28 02:44:24;;;;;;;;;1.00;1.00;;;;;23.78;53.34;100346.47;4959277;28;45413;-40
2023/07/28 02:46:49;;;;;;;;;0.00;0.00;;;;;23.78;53.22;100349.97;4959438;28;45416;-41
2023/07/28 02:49:15;;;;;;;;;1.00;1.00;;;;;23.78;53.08;100349.97;4958349;28;62081;-40
2023/07/28 02:51:41;;;;;;;;;2.00;0.25;;;;;23.78;53.06;100352.59;4959071;28;45253;-39
2023/07/28 02:54:07;;;;;;;;;0.00;0.00;;;;;23.79;53.47;100348.16;4959100;28;45328;-40
2023/07/28 02:56:37;;;;;;;;;0.75;0.75;;;;;23.78;53.26;100357.91;4959276;28;45574;-39
2023/07/28 02:59:03;;;;;;;;;1.50;0.00;;;;;23.78;53.40;100349.97;4958862;28;46201;-42
2023/07/28 03:01:35;;;;;;;;;1.25;1.25;;;;;23.81;53.46;100355.97;4959385;28;45287;-41
2023/07/28 03:04:03;;;;;;;;;1.00;1.00;;;;;23.78;52.89;100360.53;4959363;28;45439;-39
2023/07/28 03:06:29;;;;;;;;;0.75;0.75;;;;;23.80;52.94;100359.59;4959528;28;45535;-42
2023/07/28 03:08:55;;;;;;;;;0.00;0.00;;;;;23.80;53.45;100362.22;4958765;28;46271;-42
2023/07/28 03:11:20;;;;;;;;;0.00;0.00;;;;;23.78;53.55;100360.53;4958590;28;45746;-44
2023/07/28 03:13:45;;;;;;;;;0.25;0.25;;;;;23.79;53.29;100361.41;4958807;28;45254;-43
2023/07/28 03:16:11;;;;;;;;;0.75;0.00;;;;;23.76;53.41;100357.16;4958927;28;45178;-42
2023/07/28 03:18:37;;;;;;;;;2.00;1.00;;;;;23.76;53.48;100361.63;4970425;28;45429;-42
2023/07/28 03:21:02;;;;;;;;;1.00;1.00;;;;;23.79;53.01;100356.09;4961021;28;45363;-41
2023/07/28 03:23:27;;;;;;;;;0.00;0.00;;;;;23.77;53.13;100358.03;4978346;28;45298;-42
2023/07/28 03:25:53;;;;;;;;;2.00;0.75;;;;;23.79;53.27;100358.75;4977800;28;51992;-40
2023/07/28 03:28:18;;;;;;;;;0.00;0.00;;;;;23.79;53.39;100364.03;4978172;28;45921;-42
2023/07/28 03:30:43;;;;;;;;;0.00;0.00;;;;;23.77;53.25;100371.25;4977632;28;52344;-40
2023/07/28 03:33:08;;;;;;;;;1.75;0.25;;;;;23.77;53.58;100369.44;4978153;28;45970;-43
2023/07/28 03:35:34;;;;;;;;;1.00;1.00;;;;;23.76;53.15;100370.41;4978110;28;45637;-39
2023/07/28 03:37:59;;;;;;;;;1.00;1.00;;;;;23.77;53.66;100364.16;4978138;28;48388;-40
2023/07/28 03:40:25;;;;;;;;;0.00;0.00;;;;;23.77;53.48;100364.16;4977657;28;47985;-41
2023/07/28 03:42:50;;;;;;;;;0.00;0.00;;;;;23.76;53.54;100361.63;4977787;28;45300;-40
2023/07/28 03:45:16;;;;;;;;;0.00;0.00;;;;;23.77;53.52;100361.50;4978104;28;45353;-42
2023/07/28 03:47:41;;;;;;;;;1.00;1.00;;;;;23.77;53.47;100358.03;4977701;28;45798;-41
2023/07/28 03:50:07;;;;;;;;;0.25;0.25;;;;;23.76;53.70;100351.88;4977684;28;45294;-40
2023/07/28 03:52:32;;;;;;;;;0.00;0.00;;;;;23.76;53.53;100354.53;4978176;28;45310;-41
2023/07/28 03:54:57;;;;;;;;;0.00;0.00;;;;;23.75;53.54;100350.22;4977220;28;54003;-43
2023/07/28 03:57:23;;;;;;;;;0.00;0.00;;;;;23.74;53.05;100347.66;4977281;28;46922;-40
2023/07/28 03:59:48;;;;;;;;;0.00;0.00;;;;;23.76;53.20;100338.63;4977377;28;45437;-40
2023/07/28 04:02:13;;;;;;;;;0.75;0.75;;;;;23.75;53.80;100333.47;4977704;28;45232;-41
2023/07/28 04:04:39;;;;;;;;;0.00;0.00;;;;;23.76;53.76;100337.81;4977401;28;46712;-39
2023/07/28 04:07:04;;;;;;;;;2.00;0.00;;;;;23.76;53.68;100337.81;4959646;28;45914;-40
2023/07/28 04:09:30;;;;;;;;;0.75;0.75;;;;;23.77;53.38;100342.97;4977502;28;45363;-44
2023/07/28 04:11:55;;;;;;;;;0.67;0.67;;;;;23.77;53.28;100342.97;4976648;28;60552;-42
2023/07/28 04:14:20;;;;;;;;;0.00;0.00;;;;;23.76;53.79;100336.00;4977589;28;45308;-44
2023/07/28 04:16:45;;;;;;;;;0.75;0.75;;;;;23.78;53.41;100341.19;4976810;28;56243;-43
2023/07/28 04:19:11;;;;;;;;;0.50;0.50;;;;;23.77;53.87;100340.34;4977009;28;45485;-40
2023/07/28 04:21:39;;;;;;;;;0.00;0.00;;;;;23.76;53.89;100346.56;4977712;28;45271;-42
2023/07/28 04:24:09;;;;;;;;;0.00;0.00;;;;;23.76;54.02;100349.22;4977709;28;45600;-42
2023/07/28 04:26:34;;;;;;;;;0.00;0.00;;;;;23.75;53.70;100339.63;4977370;28;46183;-42
2023/07/28 04:29:00;;;;;;;;;0.00;0.00;;;;;23.73;54.14;100332.75;4977028;28;49008;-39
2023/07/28 04:31:25;;;;;;;;;0.00;0.00;;;;;23.73;54.35;100335.41;4976844;28;49233;-40
2023/07/28 04:33:50;;;;;;;;;1.00;1.00;;;;;23.73;54.10;100341.53;4977409;28;45224;-40
2023/07/28 04:36:16;;;;;;;;;0.00;0.00;;;;;23.74;54.06;100343.22;4976799;28;51510;-40
2023/07/28 04:38:41;;;;;;;;;0.00;0.00;;;;;23.75;53.94;100354.66;4976974;28;45259;-40
2023/07/28 04:41:06;;;;;;;;;1.00;1.00;;;;;23.75;53.95;100357.28;4977355;28;45418;-40
2023/07/28 04:43:31;;;;;;;;;0.00;0.00;;;;;23.72;53.96;100349.59;4977278;28;45692;-40
2023/07/28 04:45:57;;;;;;;;;1.00;1.00;;;;;23.75;54.04;100355.50;4976797;28;45354;-42
2023/07/28 04:48:22;;;;;;;;;0.00;0.00;;;;;23.73;54.56;100352.13;4976879;28;45365;-41
2023/07/28 04:50:47;;;;;;;;;0.00;0.00;;;;;23.74;54.66;100352.97;4959435;28;45246;-40
2023/07/28 04:53:13;;;;;;;;;1.00;1.00;;;;;23.74;53.89;100345.03;4977191;28;45578;-46
2023/07/28 04:55:38;;;;;;;;;0.00;0.00;;;;;23.73;54.64;100346.84;4959488;28;52412;-44
2023/07/28 04:58:03;;;;;;;;;0.25;0.25;;;;;23.76;54.75;100361.63;4977161;28;45306;-40
2023/07/28 05:00:29;;;;;;;;;0.25;0.25;;;;;23.75;54.10;100359.94;4976844;28;45333;-41
2023/07/28 05:02:54;;;;;;;;;1.00;0.00;;;;;23.76;54.33;100359.81;4976540;28;48947;-45
2023/07/28 05:05:20;;;;;;;;;0.75;0.75;;;;;23.76;54.27;100356.34;4976577;28;45832;-41
2023/07/28 05:07:45;;;;;;;;;0.00;0.00;;;;;23.74;54.17;100350.31;4976692;28;45407;-41
2023/07/28 05:10:10;;;;;;;;;0.00;0.00;;;;;23.73;54.18;100357.41;4959187;28;45475;-42
2023/07/28 05:12:36;;;;;;;;;0.25;0.25;;;;;23.73;54.75;100357.41;4977125;28;45310;-40
2023/07/28 05:15:01;;;;;;;;;1.00;1.00;;;;;23.74;54.35;100356.47;4976362;28;46092;-39
2023/07/28 05:17:26;;;;;;;;;0.00;0.00;;;;;23.75;54.52;100358.16;4976164;28;51318;-40
2023/07/28 05:19:51;;;;;;;;;1.50;0.00;;;;;23.73;54.99;100354.78;4979123;28;45420;-40
2023/07/28 05:22:17;;;;;;;;;0.00;0.00;;;;;23.73;54.37;100349.47;4980317;28;45334;-42
2023/07/28 05:24:46;;;;;;;;;1.00;1.00;;;;;23.74;54.55;100352.97;4979791;28;45953;-42
2023/07/28 05:27:12;;;;;;;;;0.00;0.00;;;;;23.75;54.36;100358.16;4979855;28;45752;-40
2023/07/28 05:29:37;;;;;;;;;0.00;0.00;;;;;23.74;54.95;100352.97;4980314;28;45385;-40
2023/07/28 05:32:03;;;;;;;;;0.50;0.50;;;;;23.74;54.89;100351.16;4979743;28;46305;-41
2023/07/28 05:34:29;;;;;;;;;0.00;0.00;;;;;23.74;54.41;100359.09;4979637;28;47106;-40
2023/07/28 05:36:54;;;;;;;;;0.00;0.00;;;;;23.75;54.49;100365.22;4979669;28;45299;-40
2023/07/28 05:39:20;;;;;;;;;0.00;0.00;;;;;23.75;54.86;100363.44;4979879;28;45287;-40
2023/07/28 05:41:45;;;;;;;;;0.00;0.00;;;;;23.76;54.92;100364.28;4979833;28;45429;-40
2023/07/28 05:44:10;;;;;;;;;0.75;0.00;;;;;23.76;54.93;100359.81;4979828;28;46485;-42
2023/07/28 05:46:35;;;;;;;;;0.00;0.00;;;;;23.75;54.92;100360.78;4979553;28;45504;-43
2023/07/28 05:49:01;;;;;;;;;0.25;0.25;;;;;23.75;55.00;100365.22;4979608;28;45413;-41
2023/07/28 05:51:26;;;;;;;;;0.25;0.00;;;;;23.76;54.47;100357.16;4979742;28;45636;-39
2023/07/28 05:53:52;;;;;;;;;0.00;0.00;;;;;23.75;54.85;100349.34;4979432;28;52363;-42
2023/07/28 05:56:18;;;;;;;;;0.00;0.00;;;;;23.77;55.00;100363.31;4979485;28;45336;-42
2023/07/28 05:58:47;;;;;;;;;0.00;0.00;;;;;23.76;54.75;100359.81;4979555;28;45247;-40
2023/07/28 06:01:12;;;;;;;;;1.00;0.00;;;;;23.76;54.68;100365.09;4979886;28;45711;-39
2023/07/28 06:03:38;;;;;;;;;0.00;0.00;;;;;23.77;54.70;100365.97;4979534;28;45351;-41
2023/07/28 06:06:03;;;;;;;;;0.00;0.00;;;;;23.76;54.57;100367.75;4979295;28;45405;-39
2023/07/28 06:08:29;;;;;;;;;0.00;0.00;;;;;23.75;54.82;100366.09;4979401;28;45316;-42
2023/07/28 06:10:54;;;;;;;;;0.00;0.00;;;;;23.75;54.91;100363.44;4961830;28;45572;-40
2023/07/28 06:13:20;;;;;;;;;0.00;0.00;;;;;23.75;54.66;100362.59;4979242;28;46938;-40
2023/07/28 06:15:45;;;;;;;;;0.75;0.00;;;;;23.75;54.87;100368.75;4979095;28;45410;-39
2023/07/28 06:18:10;;;;;;;;;0.00;0.00;;;;;23.77;54.56;100374.72;4979408;28;45401;-44
2023/07/28 06:20:36;;;;;;;;;0.00;0.00;;;;;23.76;55.32;100374.84;4979463;28;45365;-40
2023/07/28 06:23:01;;;;;;;;;3.00;0.00;;;;;23.75;54.87;100375.81;4979004;28;46170;-41
2023/07/28 06:25:26;;;;;;;;;0.50;0.00;;;;;23.74;55.20;100374.97;4978880;28;45515;-43
2023/07/28 06:27:52;;;;;;;;;0.75;0.00;;;;;23.73;54.68;100373.28;4979199;28;45313;-39
2023/07/28 06:30:17;;;;;;;;;0.00;0.00;;;;;23.73;55.39;100375.94;4978623;28;45624;-41
2023/07/28 06:32:43;;;;;;;;;0.00;0.00;;;;;23.73;55.33;100373.28;4977825;28;48386;-41
2023/07/28 06:35:09;;;;;;;;;0.00;0.00;;;;;23.73;54.86;100383.88;4978811;28;45199;-42
2023/07/28 06:37:37;;;;;;;;;1.00;0.00;;;;;23.71;55.37;100380.50;4979187;28;45322;-41
2023/07/28 06:40:09;;;;;;;;;0.00;0.00;;;;;23.73;55.41;100385.66;4979067;28;45227;-40
2023/07/28 06:42:35;;;;;;;;;0.00;0.00;;;;;23.74;54.80;100384.72;4978528;28;46152;-42
2023/07/28 06:45:02;;;;;;;;;1.00;0.00;;;;;23.73;55.35;100386.53;4978638;28;45259;-40
2023/07/28 06:47:27;;;;;;;;;1.00;0.00;;;;;23.72;54.94;100387.47;4978854;28;45274;-40
2023/07/28 06:49:53;;;;;;;;;0.00;0.00;;;;;23.73;54.99;100389.16;4978997;28;45470;-41
2023/07/28 06:52:18;;;;;;;;;0.00;0.00;;;;;23.72;55.35;100398.06;4978732;28;46190;-44
2023/07/28 06:54:43;;;;;;;;;0.00;0.00;;;;;23.74;55.35;100396.16;4978383;28;56363;-42
2023/07/28 06:57:08;;;;;;;;;0.00;0.00;;;;;23.74;54.87;100396.16;4978666;28;45254;-42
2023/07/28 06:59:34;;;;;;;;;0.50;0.00;;;;;23.75;55.11;100397.84;4978761;28;45464;-42
2023/07/28 07:01:59;;;;;;;;;1.00;0.00;;;;;23.76;54.89;100403.97;4978423;28;45372;-42
2023/07/28 07:04:25;;;;;;;;;0.50;0.00;;;;;23.74;54.88;100401.44;4978426;28;45375;-40
2023/07/28 07:06:50;;;;;;;;;0.00;0.00;;;;;23.76;55.07;100402.16;4978537;28;45349;-41
2023/07/28 07:09:15;;;;;;;;;0.00;0.00;;;;;23.76;55.38;100407.44;4978334;28;49626;-42
2023/07/28 07:11:41;;;;;;;;;0.00;0.00;;;;;23.75;55.18;100410.22;4978184;28;45313;-40
2023/07/28 07:14:06;;;;;;;;;0.00;0.00;;;;;23.75;55.24;100408.44;4978356;28;45399;-41
2023/07/28 07:16:32;;;;;;;;;0.00;0.00;;;;;23.76;55.08;100415.38;4960863;28;45449;-42
2023/07/28 07:18:57;;;;;;;;;0.00;0.00;;;;;23.75;54.85;100413.72;4978375;28;45503;-38
2023/07/28 07:21:23;;;;;;;;;0.00;0.00;;;;;23.74;55.42;100412.03;4978218;28;47000;-42
2023/07/28 07:23:48;;;;;;;;;0.00;0.00;;;;;23.76;55.24;100420.66;4977948;28;45226;-41
2023/07/28 07:26:14;;;;;;;;;0.00;0.00;;;;;23.76;55.59;100425.13;4978673;28;45335;-43
2023/07/28 07:28:39;;;;;;;;;1.00;0.00;;;;;23.75;56.03;100429.59;4978389;28;45223;-43
2023/07/28 07:31:12;;;;;;;;;2.00;0.00;;;;;23.73;55.26;100426.22;4977980;28;45342;-41
2023/07/28 07:33:37;;;;;;;;;0.00;0.00;;;;;23.72;55.14;100432.47;4977973;28;45710;-39
2023/07/28 07:36:03;;;;;;;;;0.00;0.00;;;;;23.74;55.42;100438.50;4977635;28;52545;-42
2023/07/28 07:38:28;;;;;;;;;0.50;0.50;;;;;23.76;55.19;100441.00;4976843;28;45528;-39
2023/07/28 07:40:53;;;;;;;;;0.00;0.00;;;;;23.76;55.22;100441.00;4976713;28;56409;-40
2023/07/28 07:43:20;;;;;;;;;0.00;0.00;;;;;23.75;55.87;100450.75;4977496;28;45327;-41
2023/07/28 07:45:46;;;;;;;;;0.00;0.00;;;;;23.76;55.78;100444.47;4978288;28;45472;-39
2023/07/28 07:48:12;;;;;;;;;0.25;0.25;;;;;23.75;55.58;100437.53;4978041;28;45233;-41
2023/07/28 07:50:37;;;;;;;;;0.00;0.00;;;;;23.75;55.71;100434.03;4977515;28;46567;-40
2023/07/28 07:53:03;;;;;;;;;0.00;0.00;;;;;23.76;55.53;100435.72;4977603;28;45449;-41
2023/07/28 07:55:28;;;;;;;;;0.00;0.00;;;;;23.74;55.65;100432.34;4977441;28;51806;-39
2023/07/28 07:57:53;;;;;;;;;0.00;0.00;;;;;23.74;55.81;100438.50;4960469;28;45383;-41
2023/07/28 08:00:19;;;;;;;;;0.00;0.00;;;;;23.74;55.71;100440.28;4960077;28;48502;-42
2023/07/28 08:02:44;;;;;;;;;0.00;0.00;;;;;23.72;56.00;100435.13;4977764;28;45262;-43
2023/07/28 08:05:10;;;;;;;;;1.00;0.00;;;;;23.72;56.15;100437.75;4960195;28;45384;-40
2023/07/28 08:07:35;;;;;;;;;0.00;0.00;;;;;23.74;55.87;100437.63;4977527;28;45259;-42
2023/07/28 08:10:01;;;;;;;;;0.75;0.75;;;;;23.73;55.85;100439.44;4959772;28;48357;-41
2023/07/28 08:12:27;;;;;;;;;0.25;0.00;;;;;23.75;56.30;100442.81;4977406;28;45348;-41
2023/07/28 08:14:53;;;;;;;;;0.00;0.00;;;;;23.76;55.85;100441.00;4977488;28;45339;-42
2023/07/28 08:17:18;;;;;;;;;0.25;0.25;;;;;23.75;55.87;100434.88;4977824;28;45307;-40
2023/07/28 08:19:44;;;;;;;;;0.00;0.00;;;;;23.74;56.14;100438.50;4977175;28;46955;-40
2023/07/28 08:22:09;;;;;;;;;0.00;0.00;;;;;23.76;56.23;100447.13;4977241;28;45265;-42
2023/07/28 08:24:35;;;;;;;;;1.50;0.25;;;;;23.76;56.00;100448.94;4977422;28;45299;-39
2023/07/28 08:27:00;;;;;;;;;0.00;0.00;;;;;23.74;56.46;100454.38;4977511;28;45164;-40
2023/07/28 08:29:26;;;;;;;;;0.00;0.00;;;;;23.76;56.50;100457.72;4977302;28;45844;-41
2023/07/28 08:31:51;;;;;;;;;0.75;0.75;;;;;23.75;56.57;100450.75;4976940;28;45379;-41
2023/07/28 08:34:17;;;;;;;;;1.25;0.00;;;;;23.76;56.66;100452.41;4976238;28;45361;-40
